sensor_id;sensor_type;location;lat;lon;timestamp;temperature;humidity
21193;DHT22;10754;51.106;7.164;2023-11-21T00:01:25;12.80;1.00
21193;DHT22;10754;51.106;7.164;2023-11-21T00:03:50;12.80;1.00
21193;DHT22;10754;51.106;7.164;2023-11-21T00:06:19;12.80;1.00
21193;DHT22;10754;51.106;7.164;2023-11-21T00:08:45;12.80;1.00
21193;DHT22;10754;51.106;7.164;2023-11-21T00:11:11;12.80;1.00
21193;DHT22;10754;51.106;7.164;2023-11-21T00:13:36;12.80;1.00
21193;DHT22;10754;51.106;7.164;2023-11-21T00:16:03;12.80;1.00
21193;DHT22;10754;51.106;7.164;2023-11-21T00:18:29;12.70;1.00
21193;DHT22;10754;51.106;7.164;2023-11-21T00:20:55;12.70;1.00
21193;DHT22;10754;51.106;7.164;2023-11-21T00:23:20;12.60;1.00
21193;DHT22;10754;51.106;7.164;2023-11-21T00:25:46;12.60;1.00
21193;DHT22;10754;51.106;7.164;2023-11-21T00:28:11;12.60;1.00
21193;DHT22;10754;51.106;7.164;2023-11-21T00:30:37;12.60;1.00
21193;DHT22;10754;51.106;7.164;2023-11-21T00:33:03;12.60;1.00
21193;DHT22;10754;51.106;7.164;2023-11-21T00:35:29;12.50;1.00
21193;DHT22;10754;51.106;7.164;2023-11-21T00:37:55;12.50;1.00
21193;DHT22;10754;51.106;7.164;2023-11-21T00:40:21;12.40;1.00
21193;DHT22;10754;51.106;7.164;2023-11-21T00:42:47;12.40;1.00
21193;DHT22;10754;51.106;7.164;2023-11-21T00:45:13;12.40;1.00
21193;DHT22;10754;51.106;7.164;2023-11-21T00:47:38;12.40;1.00
21193;DHT22;10754;51.106;7.164;2023-11-21T00:50:05;12.40;1.00
21193;DHT22;10754;51.106;7.164;2023-11-21T00:52:31;12.40;1.00
21193;DHT22;10754;51.106;7.164;2023-11-21T00:54:57;12.30;1.00
21193;DHT22;10754;51.106;7.164;2023-11-21T00:57:26;12.30;1.00
21193;DHT22;10754;51.106;7.164;2023-11-21T00:59:51;12.30;1.00
21193;DHT22;10754;51.106;7.164;2023-11-21T01:02:16;12.20;1.00
21193;DHT22;10754;51.106;7.164;2023-11-21T01:04:42;12.20;1.00
21193;DHT22;10754;51.106;7.164;2023-11-21T01:07:08;12.20;1.00
21193;DHT22;10754;51.106;7.164;2023-11-21T01:09:34;12.10;1.00
21193;DHT22;10754;51.106;7.164;2023-11-21T01:12:00;12.10;1.00
21193;DHT22;10754;51.106;7.164;2023-11-21T01:14:26;12.10;1.00
21193;DHT22;10754;51.106;7.164;2023-11-21T01:16:52;12.10;1.00
21193;DHT22;10754;51.106;7.164;2023-11-21T01:19:18;12.10;1.00
21193;DHT22;10754;51.106;7.164;2023-11-21T01:21:43;12.10;1.00
21193;DHT22;10754;51.106;7.164;2023-11-21T01:24:09;12.00;1.00
21193;DHT22;10754;51.106;7.164;2023-11-21T01:26:34;12.00;1.00
21193;DHT22;10754;51.106;7.164;2023-11-21T01:29:00;12.00;1.00
21193;DHT22;10754;51.106;7.164;2023-11-21T01:31:25;12.00;1.00
21193;DHT22;10754;51.106;7.164;2023-11-21T01:33:54;11.90;1.00
21193;DHT22;10754;51.106;7.164;2023-11-21T01:36:20;11.90;1.00
21193;DHT22;10754;51.106;7.164;2023-11-21T01:38:46;11.90;1.00
21193;DHT22;10754;51.106;7.164;2023-11-21T01:41:14;11.90;1.00
21193;DHT22;10754;51.106;7.164;2023-11-21T01:43:41;11.90;1.00
21193;DHT22;10754;51.106;7.164;2023-11-21T01:46:06;11.90;1.00
21193;DHT22;10754;51.106;7.164;2023-11-21T01:48:33;11.80;1.00
21193;DHT22;10754;51.106;7.164;2023-11-21T01:51:00;11.80;1.00
21193;DHT22;10754;51.106;7.164;2023-11-21T01:53:25;11.80;1.00
21193;DHT22;10754;51.106;7.164;2023-11-21T01:55:51;11.80;1.00
21193;DHT22;10754;51.106;7.164;2023-11-21T01:58:19;11.80;1.00
21193;DHT22;10754;51.106;7.164;2023-11-21T02:00:45;11.80;1.00
21193;DHT22;10754;51.106;7.164;2023-11-21T02:03:10;11.80;1.00
21193;DHT22;10754;51.106;7.164;2023-11-21T02:05:36;11.70;1.00
21193;DHT22;10754;51.106;7.164;2023-11-21T02:08:02;11.80;1.00
21193;DHT22;10754;51.106;7.164;2023-11-21T02:10:28;11.70;1.00
21193;DHT22;10754;51.106;7.164;2023-11-21T02:12:55;11.70;1.00
21193;DHT22;10754;51.106;7.164;2023-11-21T02:15:21;11.70;1.00
21193;DHT22;10754;51.106;7.164;2023-11-21T02:17:48;11.70;1.00
21193;DHT22;10754;51.106;7.164;2023-11-21T02:20:19;11.70;1.00
21193;DHT22;10754;51.106;7.164;2023-11-21T02:22:52;11.70;1.00
21193;DHT22;10754;51.106;7.164;2023-11-21T02:25:28;11.70;1.00
21193;DHT22;10754;51.106;7.164;2023-11-21T02:27:58;11.70;1.00
21193;DHT22;10754;51.106;7.164;2023-11-21T02:30:23;11.70;1.00
21193;DHT22;10754;51.106;7.164;2023-11-21T02:32:51;11.70;1.00
21193;DHT22;10754;51.106;7.164;2023-11-21T02:35:18;11.70;1.00
21193;DHT22;10754;51.106;7.164;2023-11-21T02:37:49;11.70;1.00
21193;DHT22;10754;51.106;7.164;2023-11-21T02:40:15;11.70;1.00
21193;DHT22;10754;51.106;7.164;2023-11-21T02:42:46;11.70;1.00
21193;DHT22;10754;51.106;7.164;2023-11-21T02:45:14;11.70;1.00
21193;DHT22;10754;51.106;7.164;2023-11-21T02:47:42;11.60;1.00
21193;DHT22;10754;51.106;7.164;2023-11-21T02:50:08;11.70;1.00
21193;DHT22;10754;51.106;7.164;2023-11-21T02:52:35;11.70;1.00
21193;DHT22;10754;51.106;7.164;2023-11-21T02:55:03;11.70;1.00
21193;DHT22;10754;51.106;7.164;2023-11-21T02:57:29;11.70;1.00
21193;DHT22;10754;51.106;7.164;2023-11-21T02:59:55;11.70;1.00
21193;DHT22;10754;51.106;7.164;2023-11-21T03:02:21;11.70;1.00
21193;DHT22;10754;51.106;7.164;2023-11-21T03:04:47;11.70;1.00
21193;DHT22;10754;51.106;7.164;2023-11-21T03:07:14;11.70;1.00
21193;DHT22;10754;51.106;7.164;2023-11-21T03:09:40;11.80;1.00
21193;DHT22;10754;51.106;7.164;2023-11-21T03:12:06;11.80;1.00
21193;DHT22;10754;51.106;7.164;2023-11-21T03:14:31;11.80;1.00
21193;DHT22;10754;51.106;7.164;2023-11-21T03:16:57;11.80;1.00
21193;DHT22;10754;51.106;7.164;2023-11-21T03:19:22;11.80;1.00
21193;DHT22;10754;51.106;7.164;2023-11-21T03:21:48;11.80;1.00
21193;DHT22;10754;51.106;7.164;2023-11-21T03:24:14;11.80;1.00
21193;DHT22;10754;51.106;7.164;2023-11-21T03:26:44;11.80;1.00
21193;DHT22;10754;51.106;7.164;2023-11-21T03:29:10;11.80;1.00
21193;DHT22;10754;51.106;7.164;2023-11-21T03:31:35;11.80;1.00
21193;DHT22;10754;51.106;7.164;2023-11-21T03:34:01;11.80;1.00
21193;DHT22;10754;51.106;7.164;2023-11-21T03:36:27;11.80;1.00
21193;DHT22;10754;51.106;7.164;2023-11-21T03:38:52;11.80;1.00
21193;DHT22;10754;51.106;7.164;2023-11-21T03:41:18;11.80;1.00
21193;DHT22;10754;51.106;7.164;2023-11-21T03:43:43;11.80;1.00
21193;DHT22;10754;51.106;7.164;2023-11-21T03:46:09;11.80;1.00
21193;DHT22;10754;51.106;7.164;2023-11-21T03:48:35;11.80;1.00
21193;DHT22;10754;51.106;7.164;2023-11-21T03:51:01;11.80;1.00
21193;DHT22;10754;51.106;7.164;2023-11-21T03:53:26;11.80;1.00
21193;DHT22;10754;51.106;7.164;2023-11-21T03:55:52;11.80;1.00
21193;DHT22;10754;51.106;7.164;2023-11-21T03:58:17;11.80;1.00
21193;DHT22;10754;51.106;7.164;2023-11-21T04:00:43;11.80;1.00
21193;DHT22;10754;51.106;7.164;2023-11-21T04:03:08;11.90;1.00
21193;DHT22;10754;51.106;7.164;2023-11-21T04:05:34;11.90;1.00
21193;DHT22;10754;51.106;7.164;2023-11-21T04:07:59;11.90;1.00
21193;DHT22;10754;51.106;7.164;2023-11-21T04:10:25;11.80;1.00
21193;DHT22;10754;51.106;7.164;2023-11-21T04:12:50;11.80;1.00
21193;DHT22;10754;51.106;7.164;2023-11-21T04:15:16;11.90;1.00
21193;DHT22;10754;51.106;7.164;2023-11-21T04:17:42;11.90;1.00
21193;DHT22;10754;51.106;7.164;2023-11-21T04:20:09;11.90;1.00
21193;DHT22;10754;51.106;7.164;2023-11-21T04:22:43;11.90;1.00
21193;DHT22;10754;51.106;7.164;2023-11-21T04:25:14;11.90;1.00
21193;DHT22;10754;51.106;7.164;2023-11-21T04:27:41;11.90;1.00
21193;DHT22;10754;51.106;7.164;2023-11-21T04:30:09;11.90;1.00
21193;DHT22;10754;51.106;7.164;2023-11-21T04:32:35;11.90;1.00
21193;DHT22;10754;51.106;7.164;2023-11-21T04:35:01;11.90;1.00
21193;DHT22;10754;51.106;7.164;2023-11-21T04:37:27;11.90;1.00
21193;DHT22;10754;51.106;7.164;2023-11-21T04:39:52;11.90;1.00
21193;DHT22;10754;51.106;7.164;2023-11-21T04:42:17;11.90;1.00
21193;DHT22;10754;51.106;7.164;2023-11-21T04:44:43;11.90;1.00
21193;DHT22;10754;51.106;7.164;2023-11-21T04:47:09;12.00;1.00
21193;DHT22;10754;51.106;7.164;2023-11-21T04:49:35;12.00;1.00
21193;DHT22;10754;51.106;7.164;2023-11-21T04:52:01;12.00;1.00
21193;DHT22;10754;51.106;7.164;2023-11-21T04:54:27;12.00;1.00
21193;DHT22;10754;51.106;7.164;2023-11-21T04:56:52;12.00;1.00
21193;DHT22;10754;51.106;7.164;2023-11-21T04:59:18;12.00;1.00
21193;DHT22;10754;51.106;7.164;2023-11-21T05:01:43;12.00;1.00
21193;DHT22;10754;51.106;7.164;2023-11-21T05:04:09;12.00;1.00
21193;DHT22;10754;51.106;7.164;2023-11-21T05:06:35;12.00;1.00
21193;DHT22;10754;51.106;7.164;2023-11-21T05:09:00;12.00;1.00
21193;DHT22;10754;51.106;7.164;2023-11-21T05:11:26;11.90;1.00
21193;DHT22;10754;51.106;7.164;2023-11-21T05:13:52;11.90;1.00
21193;DHT22;10754;51.106;7.164;2023-11-21T05:16:19;12.00;1.00
21193;DHT22;10754;51.106;7.164;2023-11-21T05:18:44;12.00;1.00
21193;DHT22;10754;51.106;7.164;2023-11-21T05:21:10;12.00;1.00
21193;DHT22;10754;51.106;7.164;2023-11-21T05:23:35;12.00;1.00
21193;DHT22;10754;51.106;7.164;2023-11-21T05:26:02;12.00;1.00
21193;DHT22;10754;51.106;7.164;2023-11-21T05:28:28;12.00;1.00
21193;DHT22;10754;51.106;7.164;2023-11-21T05:30:53;12.00;1.00
21193;DHT22;10754;51.106;7.164;2023-11-21T05:33:19;12.00;1.00
21193;DHT22;10754;51.106;7.164;2023-11-21T05:35:44;12.00;1.00
21193;DHT22;10754;51.106;7.164;2023-11-21T05:38:10;12.00;1.00
21193;DHT22;10754;51.106;7.164;2023-11-21T05:40:36;12.00;1.00
21193;DHT22;10754;51.106;7.164;2023-11-21T05:43:02;12.00;1.00
21193;DHT22;10754;51.106;7.164;2023-11-21T05:45:27;12.00;1.00
21193;DHT22;10754;51.106;7.164;2023-11-21T05:47:54;12.00;1.00
21193;DHT22;10754;51.106;7.164;2023-11-21T05:50:20;12.00;1.00
21193;DHT22;10754;51.106;7.164;2023-11-21T05:52:47;12.00;1.00
21193;DHT22;10754;51.106;7.164;2023-11-21T05:55:13;12.00;1.00
21193;DHT22;10754;51.106;7.164;2023-11-21T05:57:40;12.00;1.00
21193;DHT22;10754;51.106;7.164;2023-11-21T06:00:08;12.00;1.00
21193;DHT22;10754;51.106;7.164;2023-11-21T06:02:40;12.00;1.00
21193;DHT22;10754;51.106;7.164;2023-11-21T06:05:09;12.00;1.00
21193;DHT22;10754;51.106;7.164;2023-11-21T06:07:34;12.00;1.00
21193;DHT22;10754;51.106;7.164;2023-11-21T06:10:02;12.00;1.00
21193;DHT22;10754;51.106;7.164;2023-11-21T06:12:28;12.00;1.00
21193;DHT22;10754;51.106;7.164;2023-11-21T06:14:54;12.00;1.00
21193;DHT22;10754;51.106;7.164;2023-11-21T06:17:20;12.00;1.00
21193;DHT22;10754;51.106;7.164;2023-11-21T06:19:46;12.00;1.00
21193;DHT22;10754;51.106;7.164;2023-11-21T06:22:11;12.00;1.00
21193;DHT22;10754;51.106;7.164;2023-11-21T06:24:37;12.00;1.00
21193;DHT22;10754;51.106;7.164;2023-11-21T06:27:06;12.00;1.00
21193;DHT22;10754;51.106;7.164;2023-11-21T06:29:31;12.00;1.00
21193;DHT22;10754;51.106;7.164;2023-11-21T06:31:57;12.00;1.00
21193;DHT22;10754;51.106;7.164;2023-11-21T06:34:23;12.00;1.00
21193;DHT22;10754;51.106;7.164;2023-11-21T06:36:49;12.00;1.00
21193;DHT22;10754;51.106;7.164;2023-11-21T06:39:14;12.00;1.00
21193;DHT22;10754;51.106;7.164;2023-11-21T06:41:42;12.00;1.00
21193;DHT22;10754;51.106;7.164;2023-11-21T06:44:08;12.00;1.00
21193;DHT22;10754;51.106;7.164;2023-11-21T06:46:34;12.00;1.00
21193;DHT22;10754;51.106;7.164;2023-11-21T06:48:59;12.10;1.00
21193;DHT22;10754;51.106;7.164;2023-11-21T06:51:25;12.10;1.00
21193;DHT22;10754;51.106;7.164;2023-11-21T06:53:50;12.10;1.00
21193;DHT22;10754;51.106;7.164;2023-11-21T06:56:19;12.10;1.00
21193;DHT22;10754;51.106;7.164;2023-11-21T06:58:45;12.10;1.00
21193;DHT22;10754;51.106;7.164;2023-11-21T07:01:14;12.10;1.00
21193;DHT22;10754;51.106;7.164;2023-11-21T07:03:40;12.10;1.00
21193;DHT22;10754;51.106;7.164;2023-11-21T07:06:07;12.10;1.00
21193;DHT22;10754;51.106;7.164;2023-11-21T07:08:33;12.10;1.00
21193;DHT22;10754;51.106;7.164;2023-11-21T07:10:58;12.10;1.00
21193;DHT22;10754;51.106;7.164;2023-11-21T07:13:24;12.10;1.00
21193;DHT22;10754;51.106;7.164;2023-11-21T07:15:49;12.10;1.00
21193;DHT22;10754;51.106;7.164;2023-11-21T07:18:15;12.20;1.00
21193;DHT22;10754;51.106;7.164;2023-11-21T07:20:40;12.10;1.00
21193;DHT22;10754;51.106;7.164;2023-11-21T07:23:06;12.10;1.00
21193;DHT22;10754;51.106;7.164;2023-11-21T07:25:32;12.20;1.00
21193;DHT22;10754;51.106;7.164;2023-11-21T07:27:59;12.20;1.00
21193;DHT22;10754;51.106;7.164;2023-11-21T07:30:24;12.10;1.00
21193;DHT22;10754;51.106;7.164;2023-11-21T07:32:50;12.10;1.00
21193;DHT22;10754;51.106;7.164;2023-11-21T07:35:15;12.20;1.00
21193;DHT22;10754;51.106;7.164;2023-11-21T07:37:41;12.20;1.00
21193;DHT22;10754;51.106;7.164;2023-11-21T07:40:08;12.20;1.00
21193;DHT22;10754;51.106;7.164;2023-11-21T07:42:34;12.30;1.00
21193;DHT22;10754;51.106;7.164;2023-11-21T07:45:00;12.30;1.00
21193;DHT22;10754;51.106;7.164;2023-11-21T07:47:25;12.30;1.00
21193;DHT22;10754;51.106;7.164;2023-11-21T07:49:53;12.30;1.00
21193;DHT22;10754;51.106;7.164;2023-11-21T07:52:18;12.30;1.00
21193;DHT22;10754;51.106;7.164;2023-11-21T07:54:46;12.30;1.00
21193;DHT22;10754;51.106;7.164;2023-11-21T07:57:12;12.30;1.00
21193;DHT22;10754;51.106;7.164;2023-11-21T07:59:41;12.30;1.00
21193;DHT22;10754;51.106;7.164;2023-11-21T08:02:07;12.40;1.00
21193;DHT22;10754;51.106;7.164;2023-11-21T08:04:33;12.40;1.00
21193;DHT22;10754;51.106;7.164;2023-11-21T08:06:59;12.40;1.00
21193;DHT22;10754;51.106;7.164;2023-11-21T08:09:25;12.40;1.00
21193;DHT22;10754;51.106;7.164;2023-11-21T08:11:51;12.40;1.00
21193;DHT22;10754;51.106;7.164;2023-11-21T08:14:18;12.40;1.00
21193;DHT22;10754;51.106;7.164;2023-11-21T08:16:44;12.50;1.00
21193;DHT22;10754;51.106;7.164;2023-11-21T08:19:10;12.50;1.00
21193;DHT22;10754;51.106;7.164;2023-11-21T08:21:36;12.50;1.00
21193;DHT22;10754;51.106;7.164;2023-11-21T08:24:05;12.50;1.00
21193;DHT22;10754;51.106;7.164;2023-11-21T08:26:31;12.50;1.00
21193;DHT22;10754;51.106;7.164;2023-11-21T08:28:56;12.50;1.00
21193;DHT22;10754;51.106;7.164;2023-11-21T08:31:25;12.50;1.00
21193;DHT22;10754;51.106;7.164;2023-11-21T08:33:51;12.50;1.00
21193;DHT22;10754;51.106;7.164;2023-11-21T08:36:17;12.50;1.00
21193;DHT22;10754;51.106;7.164;2023-11-21T08:38:42;12.60;1.00
21193;DHT22;10754;51.106;7.164;2023-11-21T08:41:08;12.60;1.00
21193;DHT22;10754;51.106;7.164;2023-11-21T08:43:36;12.60;1.00
21193;DHT22;10754;51.106;7.164;2023-11-21T08:46:05;12.60;1.00
21193;DHT22;10754;51.106;7.164;2023-11-21T08:48:31;12.60;1.00
21193;DHT22;10754;51.106;7.164;2023-11-21T08:50:56;12.60;1.00
21193;DHT22;10754;51.106;7.164;2023-11-21T08:53:22;12.60;1.00
21193;DHT22;10754;51.106;7.164;2023-11-21T08:55:48;12.60;1.00
21193;DHT22;10754;51.106;7.164;2023-11-21T08:58:15;12.60;1.00
21193;DHT22;10754;51.106;7.164;2023-11-21T09:00:41;12.60;1.00
21193;DHT22;10754;51.106;7.164;2023-11-21T09:03:06;12.60;1.00
21193;DHT22;10754;51.106;7.164;2023-11-21T09:05:37;12.60;1.00
21193;DHT22;10754;51.106;7.164;2023-11-21T09:08:04;12.70;1.00
21193;DHT22;10754;51.106;7.164;2023-11-21T09:10:29;12.60;1.00
21193;DHT22;10754;51.106;7.164;2023-11-21T09:12:55;12.70;1.00
21193;DHT22;10754;51.106;7.164;2023-11-21T09:15:20;12.70;1.00
21193;DHT22;10754;51.106;7.164;2023-11-21T09:17:46;12.80;1.00
21193;DHT22;10754;51.106;7.164;2023-11-21T09:20:12;12.80;1.00
21193;DHT22;10754;51.106;7.164;2023-11-21T09:22:37;12.80;1.00
21193;DHT22;10754;51.106;7.164;2023-11-21T09:25:03;12.80;1.00
21193;DHT22;10754;51.106;7.164;2023-11-21T09:27:31;12.80;1.00
21193;DHT22;10754;51.106;7.164;2023-11-21T09:29:56;12.80;1.00
21193;DHT22;10754;51.106;7.164;2023-11-21T09:32:23;12.90;1.00
21193;DHT22;10754;51.106;7.164;2023-11-21T09:34:49;12.90;1.00
21193;DHT22;10754;51.106;7.164;2023-11-21T09:37:15;12.90;1.00
21193;DHT22;10754;51.106;7.164;2023-11-21T09:39:41;12.90;1.00
21193;DHT22;10754;51.106;7.164;2023-11-21T09:42:10;12.90;1.00
21193;DHT22;10754;51.106;7.164;2023-11-21T09:47:29;12.90;1.00
21193;DHT22;10754;51.106;7.164;2023-11-21T09:49:56;12.90;1.00
21193;DHT22;10754;51.106;7.164;2023-11-21T09:52:27;12.80;1.00
21193;DHT22;10754;51.106;7.164;2023-11-21T09:54:53;12.90;1.00
21193;DHT22;10754;51.106;7.164;2023-11-21T09:57:23;12.90;1.00
21193;DHT22;10754;51.106;7.164;2023-11-21T09:59:51;12.90;1.00
21193;DHT22;10754;51.106;7.164;2023-11-21T10:02:17;12.90;1.00
21193;DHT22;10754;51.106;7.164;2023-11-21T10:04:46;13.00;1.00
21193;DHT22;10754;51.106;7.164;2023-11-21T10:07:13;12.90;1.00
21193;DHT22;10754;51.106;7.164;2023-11-21T10:09:41;12.90;1.00
21193;DHT22;10754;51.106;7.164;2023-11-21T10:12:07;12.90;1.00
21193;DHT22;10754;51.106;7.164;2023-11-21T10:14:37;13.00;1.00
21193;DHT22;10754;51.106;7.164;2023-11-21T10:17:05;13.00;1.00
21193;DHT22;10754;51.106;7.164;2023-11-21T10:19:35;13.00;1.00
21193;DHT22;10754;51.106;7.164;2023-11-21T10:22:02;12.90;1.00
21193;DHT22;10754;51.106;7.164;2023-11-21T10:24:29;13.00;1.00
21193;DHT22;10754;51.106;7.164;2023-11-21T10:26:54;13.00;1.00
21193;DHT22;10754;51.106;7.164;2023-11-21T10:29:20;13.00;1.00
21193;DHT22;10754;51.106;7.164;2023-11-21T10:31:49;13.00;1.00
21193;DHT22;10754;51.106;7.164;2023-11-21T10:34:17;13.00;1.00
21193;DHT22;10754;51.106;7.164;2023-11-21T10:36:43;13.00;1.00
21193;DHT22;10754;51.106;7.164;2023-11-21T10:39:09;13.10;1.00
21193;DHT22;10754;51.106;7.164;2023-11-21T10:41:39;13.10;1.00
21193;DHT22;10754;51.106;7.164;2023-11-21T10:44:05;13.00;1.00
21193;DHT22;10754;51.106;7.164;2023-11-21T10:46:32;13.10;1.00
21193;DHT22;10754;51.106;7.164;2023-11-21T10:48:59;13.10;1.00
21193;DHT22;10754;51.106;7.164;2023-11-21T10:51:25;13.20;1.00
21193;DHT22;10754;51.106;7.164;2023-11-21T10:53:54;13.20;1.00
21193;DHT22;10754;51.106;7.164;2023-11-21T10:56:23;13.30;1.00
21193;DHT22;10754;51.106;7.164;2023-11-21T10:58:49;13.30;1.00
21193;DHT22;10754;51.106;7.164;2023-11-21T11:01:18;13.20;1.00
21193;DHT22;10754;51.106;7.164;2023-11-21T11:03:44;13.20;1.00
21193;DHT22;10754;51.106;7.164;2023-11-21T11:06:10;13.20;1.00
21193;DHT22;10754;51.106;7.164;2023-11-21T11:08:37;13.20;1.00
21193;DHT22;10754;51.106;7.164;2023-11-21T11:11:04;13.30;1.00
21193;DHT22;10754;51.106;7.164;2023-11-21T11:13:30;13.30;1.00
21193;DHT22;10754;51.106;7.164;2023-11-21T11:15:58;13.20;1.00
21193;DHT22;10754;51.106;7.164;2023-11-21T11:18:28;13.20;1.00
21193;DHT22;10754;51.106;7.164;2023-11-21T11:20:58;13.20;1.00
21193;DHT22;10754;51.106;7.164;2023-11-21T11:23:45;13.30;1.00
21193;DHT22;10754;51.106;7.164;2023-11-21T11:28:56;13.30;1.00
21193;DHT22;10754;51.106;7.164;2023-11-21T11:37:20;13.20;1.00
21193;DHT22;10754;51.106;7.164;2023-11-21T11:39:49;13.30;1.00
21193;DHT22;10754;51.106;7.164;2023-11-21T11:42:17;13.30;1.00
21193;DHT22;10754;51.106;7.164;2023-11-21T11:47:15;13.30;1.00
21193;DHT22;10754;51.106;7.164;2023-11-21T11:49:57;13.40;1.00
21193;DHT22;10754;51.106;7.164;2023-11-21T11:52:34;13.50;1.00
21193;DHT22;10754;51.106;7.164;2023-11-21T11:55:01;13.50;1.00
21193;DHT22;10754;51.106;7.164;2023-11-21T11:57:30;13.50;1.00
21193;DHT22;10754;51.106;7.164;2023-11-21T12:00:14;13.40;1.00
21193;DHT22;10754;51.106;7.164;2023-11-21T12:02:54;13.30;1.00
21193;DHT22;10754;51.106;7.164;2023-11-21T12:05:22;13.30;1.00
21193;DHT22;10754;51.106;7.164;2023-11-21T12:07:59;13.30;1.00
21193;DHT22;10754;51.106;7.164;2023-11-21T12:10:30;13.30;1.00
21193;DHT22;10754;51.106;7.164;2023-11-21T12:13:01;13.40;1.00
21193;DHT22;10754;51.106;7.164;2023-11-21T12:15:27;13.40;1.00
21193;DHT22;10754;51.106;7.164;2023-11-21T12:17:57;13.40;1.00
21193;DHT22;10754;51.106;7.164;2023-11-21T12:20:24;13.40;1.00
21193;DHT22;10754;51.106;7.164;2023-11-21T12:22:55;13.50;1.00
21193;DHT22;10754;51.106;7.164;2023-11-21T12:25:25;13.50;1.00
21193;DHT22;10754;51.106;7.164;2023-11-21T12:27:54;13.60;1.00
21193;DHT22;10754;51.106;7.164;2023-11-21T12:30:21;13.60;1.00
21193;DHT22;10754;51.106;7.164;2023-11-21T12:32:52;13.70;1.00
21193;DHT22;10754;51.106;7.164;2023-11-21T12:35:19;13.60;1.00
21193;DHT22;10754;51.106;7.164;2023-11-21T12:37:45;13.60;1.00
21193;DHT22;10754;51.106;7.164;2023-11-21T12:40:13;13.70;1.00
21193;DHT22;10754;51.106;7.164;2023-11-21T12:42:48;13.50;1.00
21193;DHT22;10754;51.106;7.164;2023-11-21T12:48:01;13.60;1.00
21193;DHT22;10754;51.106;7.164;2023-11-21T12:50:30;13.70;1.00
21193;DHT22;10754;51.106;7.164;2023-11-21T12:53:07;13.70;1.00
21193;DHT22;10754;51.106;7.164;2023-11-21T12:55:35;13.70;1.00
21193;DHT22;10754;51.106;7.164;2023-11-21T12:58:05;13.80;1.00
21193;DHT22;10754;51.106;7.164;2023-11-21T13:00:43;13.80;1.00
21193;DHT22;10754;51.106;7.164;2023-11-21T13:03:11;13.80;1.00
21193;DHT22;10754;51.106;7.164;2023-11-21T13:05:46;13.80;1.00
21193;DHT22;10754;51.106;7.164;2023-11-21T13:08:15;13.80;1.00
21193;DHT22;10754;51.106;7.164;2023-11-21T13:10:45;13.70;1.00
21193;DHT22;10754;51.106;7.164;2023-11-21T13:13:14;13.70;1.00
21193;DHT22;10754;51.106;7.164;2023-11-21T13:15:55;13.70;1.00
21193;DHT22;10754;51.106;7.164;2023-11-21T13:18:24;13.70;1.00
21193;DHT22;10754;51.106;7.164;2023-11-21T13:20:53;13.80;1.00
21193;DHT22;10754;51.106;7.164;2023-11-21T13:23:18;13.80;1.00
21193;DHT22;10754;51.106;7.164;2023-11-21T13:25:44;13.80;1.00
21193;DHT22;10754;51.106;7.164;2023-11-21T13:28:14;13.70;1.00
21193;DHT22;10754;51.106;7.164;2023-11-21T13:30:41;13.80;1.00
21193;DHT22;10754;51.106;7.164;2023-11-21T13:33:07;13.80;1.00
21193;DHT22;10754;51.106;7.164;2023-11-21T13:35:35;13.70;1.00
21193;DHT22;10754;51.106;7.164;2023-11-21T13:38:10;13.80;1.00
21193;DHT22;10754;51.106;7.164;2023-11-21T13:40:37;13.80;1.00
21193;DHT22;10754;51.106;7.164;2023-11-21T13:43:10;13.70;1.00
21193;DHT22;10754;51.106;7.164;2023-11-21T13:45:37;13.70;1.00
21193;DHT22;10754;51.106;7.164;2023-11-21T13:48:05;13.70;1.00
21193;DHT22;10754;51.106;7.164;2023-11-21T13:50:33;13.60;1.00
21193;DHT22;10754;51.106;7.164;2023-11-21T13:53:03;13.50;1.00
21193;DHT22;10754;51.106;7.164;2023-11-21T13:55:36;13.60;1.00
21193;DHT22;10754;51.106;7.164;2023-11-21T13:58:02;13.70;1.00
21193;DHT22;10754;51.106;7.164;2023-11-21T14:00:29;13.70;1.00
21193;DHT22;10754;51.106;7.164;2023-11-21T14:03:10;13.70;1.00
21193;DHT22;10754;51.106;7.164;2023-11-21T14:05:44;13.70;1.00
21193;DHT22;10754;51.106;7.164;2023-11-21T14:08:12;13.70;1.00
21193;DHT22;10754;51.106;7.164;2023-11-21T14:10:42;13.70;1.00
21193;DHT22;10754;51.106;7.164;2023-11-21T14:13:14;13.70;1.00
21193;DHT22;10754;51.106;7.164;2023-11-21T14:15:42;13.70;1.00
21193;DHT22;10754;51.106;7.164;2023-11-21T14:18:10;13.70;1.00
21193;DHT22;10754;51.106;7.164;2023-11-21T14:20:40;13.70;1.00
21193;DHT22;10754;51.106;7.164;2023-11-21T14:23:07;13.70;1.00
21193;DHT22;10754;51.106;7.164;2023-11-21T14:25:34;13.70;1.00
21193;DHT22;10754;51.106;7.164;2023-11-21T14:28:00;13.70;1.00
21193;DHT22;10754;51.106;7.164;2023-11-21T14:30:26;13.70;1.00
21193;DHT22;10754;51.106;7.164;2023-11-21T14:32:52;13.60;1.00
21193;DHT22;10754;51.106;7.164;2023-11-21T14:35:18;13.60;1.00
21193;DHT22;10754;51.106;7.164;2023-11-21T14:37:44;13.60;1.00
21193;DHT22;10754;51.106;7.164;2023-11-21T14:40:10;13.60;1.00
21193;DHT22;10754;51.106;7.164;2023-11-21T14:42:36;13.70;1.00
21193;DHT22;10754;51.106;7.164;2023-11-21T14:45:05;13.70;1.00
21193;DHT22;10754;51.106;7.164;2023-11-21T14:47:33;13.70;1.00
21193;DHT22;10754;51.106;7.164;2023-11-21T14:50:01;13.70;1.00
21193;DHT22;10754;51.106;7.164;2023-11-21T14:52:44;13.70;1.00
21193;DHT22;10754;51.106;7.164;2023-11-21T14:55:21;13.60;1.00
21193;DHT22;10754;51.106;7.164;2023-11-21T14:57:57;13.60;1.00
21193;DHT22;10754;51.106;7.164;2023-11-21T15:00:23;13.60;1.00
21193;DHT22;10754;51.106;7.164;2023-11-21T15:03:02;13.60;1.00
21193;DHT22;10754;51.106;7.164;2023-11-21T15:05:28;13.60;1.00
21193;DHT22;10754;51.106;7.164;2023-11-21T15:07:55;13.50;1.00
21193;DHT22;10754;51.106;7.164;2023-11-21T15:10:39;13.50;1.00
21193;DHT22;10754;51.106;7.164;2023-11-21T15:13:19;13.50;1.00
21193;DHT22;10754;51.106;7.164;2023-11-21T15:15:44;13.40;1.00
21193;DHT22;10754;51.106;7.164;2023-11-21T15:18:10;13.30;1.00
21193;DHT22;10754;51.106;7.164;2023-11-21T15:20:39;13.40;1.00
21193;DHT22;10754;51.106;7.164;2023-11-21T15:23:05;13.40;1.00
21193;DHT22;10754;51.106;7.164;2023-11-21T15:25:31;13.40;1.00
21193;DHT22;10754;51.106;7.164;2023-11-21T15:27:57;13.30;1.00
21193;DHT22;10754;51.106;7.164;2023-11-21T15:30:23;13.40;1.00
21193;DHT22;10754;51.106;7.164;2023-11-21T15:32:51;13.40;1.00
21193;DHT22;10754;51.106;7.164;2023-11-21T15:35:18;13.40;1.00
21193;DHT22;10754;51.106;7.164;2023-11-21T15:37:44;13.40;1.00
21193;DHT22;10754;51.106;7.164;2023-11-21T15:40:10;13.40;1.00
21193;DHT22;10754;51.106;7.164;2023-11-21T15:42:36;13.40;1.00
21193;DHT22;10754;51.106;7.164;2023-11-21T15:45:03;13.40;1.00
21193;DHT22;10754;51.106;7.164;2023-11-21T15:47:32;13.50;1.00
21193;DHT22;10754;51.106;7.164;2023-11-21T15:49:58;13.40;1.00
21193;DHT22;10754;51.106;7.164;2023-11-21T15:52:23;13.40;1.00
21193;DHT22;10754;51.106;7.164;2023-11-21T15:54:49;13.40;1.00
21193;DHT22;10754;51.106;7.164;2023-11-21T15:57:14;13.40;1.00
21193;DHT22;10754;51.106;7.164;2023-11-21T15:59:42;13.40;1.00
21193;DHT22;10754;51.106;7.164;2023-11-21T16:02:08;13.40;1.00